Terminal Aerodrome Forecast
Issued by NWS

Home | Current Version | Previous Version | Text Only | Print | Product List | Glossary On
Versions: 1 2 3 4 5 6 7 8 9 10 11 12 13 14 15 16
000
FTUS46 KSEW 251738
TAFBFI
TAF
KBFI 251738Z 2518/2618 20012G23KT P6SM VCSH SCT021 OVC110
      TEMPO 2521/2601 04005KT P6SM -SHRA OVC021
     FM260200 18007G15KT P6SM SCT020 BKN040
     FM260900 15005KT P6SM BKN020 OVC030
     FM261400 15004KT P6SM BKN035=

USA.gov is the U.S. government's official web portal to all federal, state and local government web resources and services.